Time;durP1;ratioP1;P1;durP2;ratioP2;P2;SDS_P1;SDS_P2;PMS_P1;PMS_P2;Temp;Humidity;BMP_temperature;BMP_pressure;BME280_temperature;BME280_humidity;BME280_pressure;Samples;Min_cycle;Max_cycle;Signal;HPM_P1;HPM_P2
2021/11/11 00:02:14;;;;;;;42.67;25.73;;;;;;;2.36;95.82;102510.91;5074780;28;20295;-36
2021/11/11 00:04:40;;;;;;;39.40;23.60;;;;;;;2.44;96.56;102505.69;5074783;28;20096;-36
2021/11/11 00:07:06;;;;;;;47.60;27.95;;;;;;;2.36;96.48;102502.88;5074677;28;20353;-36
2021/11/11 00:09:31;;;;;;;44.30;26.17;;;;;;;2.30;95.65;102499.78;5074396;28;20499;-36
2021/11/11 00:11:58;;;;;;;45.42;25.98;;;;;;;2.25;95.78;102487.84;5074672;28;20055;-36
2021/11/11 00:14:24;;;;;;;46.03;28.08;;;;;;;2.29;95.75;102494.56;5074591;28;20105;-36
2021/11/11 00:16:49;;;;;;;42.75;25.75;;;;;;;2.40;96.22;102485.63;5074765;28;20020;-36
2021/11/11 00:19:15;;;;;;;37.05;24.15;;;;;;;2.43;96.53;102471.97;5075189;28;20029;-36
2021/11/11 00:21:41;;;;;;;39.60;25.70;;;;;;;2.43;96.39;102471.97;5074341;28;20052;-36
2021/11/11 00:24:07;;;;;;;47.72;28.70;;;;;;;2.26;96.40;102452.97;5074867;28;20107;-36
2021/11/11 00:26:33;;;;;;;43.30;26.95;;;;;;;2.26;96.43;102447.66;5074732;28;20467;-36
2021/11/11 00:28:58;;;;;;;53.88;29.45;;;;;;;2.25;96.71;102432.63;5074072;28;20107;-36
2021/11/11 00:31:24;;;;;;;37.53;23.33;;;;;;;2.40;96.55;102454.41;5073847;28;20381;-36
2021/11/11 00:33:50;;;;;;;46.92;28.85;;;;;;;2.28;95.66;102445.66;5074097;28;20081;-36
2021/11/11 00:36:15;;;;;;;43.38;27.65;;;;;;;2.22;95.90;102430.22;5074580;28;20024;-36
2021/11/11 00:38:41;;;;;;;45.13;28.63;;;;;;;2.29;96.42;102452.72;5074004;28;20025;-36
2021/11/11 00:41:06;;;;;;;38.58;24.35;;;;;;;2.24;96.00;102446.09;5074060;28;20102;-36
2021/11/11 00:43:33;;;;;;;43.13;25.77;;;;;;;2.37;96.49;102459.19;5073736;28;20037;-36
2021/11/11 00:45:59;;;;;;;52.63;30.75;;;;;;;2.29;96.70;102455.41;5073595;28;20067;-36
2021/11/11 00:48:24;;;;;;;50.10;30.23;;;;;;;2.35;96.66;102458.50;5074383;28;20443;-36
2021/11/11 00:50:49;;;;;;;45.77;29.20;;;;;;;2.23;96.82;102445.25;5073589;28;20035;-36
2021/11/11 00:53:15;;;;;;;45.00;28.50;;;;;;;2.21;95.64;102463.22;5073722;28;20097;-36
2021/11/11 00:55:41;;;;;;;52.75;32.15;;;;;;;2.28;96.57;102461.69;5073688;28;20028;-36
2021/11/11 00:58:06;;;;;;;53.67;33.37;;;;;;;2.23;96.40;102455.91;5073673;28;20429;-36
2021/11/11 01:00:35;;;;;;;53.08;32.15;;;;;;;2.29;96.86;102449.19;5073629;28;20263;-36
2021/11/11 01:03:01;;;;;;;46.10;29.25;;;;;;;2.24;97.51;102438.91;5073894;28;20032;-36
2021/11/11 01:05:26;;;;;;;56.40;35.58;;;;;;;2.32;97.94;102459.59;5073527;28;20389;-36
2021/11/11 01:07:52;;;;;;;62.70;37.13;;;;;;;2.30;98.06;102457.06;5074038;28;20036;-36
2021/11/11 01:10:18;;;;;;;60.97;36.80;;;;;;;2.39;98.46;102460.75;5073269;28;20029;-36
2021/11/11 01:12:45;;;;;;;60.78;36.20;;;;;;;2.42;98.67;102455.13;5074134;28;20099;-36
2021/11/11 01:15:15;;;;;;;53.17;35.53;;;;;;;2.37;98.58;102446.69;5073325;28;20028;-36
2021/11/11 01:17:41;;;;;;;59.75;37.15;;;;;;;2.31;98.39;102432.06;5073191;28;20028;-36
2021/11/11 01:20:08;;;;;;;59.10;36.72;;;;;;;2.45;98.21;102456.69;5073391;28;20530;-36
2021/11/11 01:22:35;;;;;;;54.83;37.72;;;;;;;2.45;98.08;102464.69;5073250;28;20048;-36
2021/11/11 01:25:01;;;;;;;60.50;38.20;;;;;;;2.43;97.98;102469.31;5073720;28;20032;-36
2021/11/11 01:27:26;;;;;;;62.00;39.97;;;;;;;2.50;98.33;102475.81;5073467;28;20031;-36
2021/11/11 01:29:51;;;;;;;57.37;37.47;;;;;;;2.45;97.89;102470.88;5072971;28;20048;-36
2021/11/11 01:32:17;;;;;;;54.67;35.10;;;;;;;2.44;97.07;102468.31;5073415;28;20471;-36
2021/11/11 01:34:42;;;;;;;53.97;37.27;;;;;;;2.45;97.15;102464.69;5073579;28;20016;-36
2021/11/11 01:37:08;;;;;;;62.93;37.90;;;;;;;2.48;97.40;102467.06;5073144;28;20083;-36
2021/11/11 01:39:33;;;;;;;57.10;37.50;;;;;;;2.46;97.53;102453.84;5073690;28;20479;-36
2021/11/11 01:41:58;;;;;;;55.57;37.07;;;;;;;2.47;98.70;102436.00;5073330;28;20028;-36
2021/11/11 01:44:24;;;;;;;57.53;38.60;;;;;;;2.58;98.68;102449.22;5073562;28;20499;-36
2021/11/11 01:46:49;;;;;;;60.00;36.83;;;;;;;2.72;99.71;102445.28;5073009;28;20044;-36
2021/11/11 01:49:15;;;;;;;59.97;39.83;;;;;;;2.74;99.90;102452.19;5072797;28;20032;-36
2021/11/11 01:51:43;;;;;;;59.70;36.23;;;;;;;2.80;99.47;102451.63;5072985;28;20275;-36
2021/11/11 01:54:08;;;;;;;58.10;38.85;;;;;;;2.81;99.56;102447.13;5073393;28;20048;-36
2021/11/11 01:56:34;;;;;;;66.63;40.63;;;;;;;2.91;100.00;102449.81;5073015;28;20122;-36
2021/11/11 01:58:59;;;;;;;60.80;38.00;;;;;;;3.02;100.00;102446.97;5072989;28;20032;-36
2021/11/11 02:01:25;;;;;;;58.37;39.10;;;;;;;3.02;100.00;102452.31;5072895;28;20095;-36
2021/11/11 02:03:53;;;;;;;52.97;35.70;;;;;;;3.09;100.00;102446.28;5073211;28;20118;-36
2021/11/11 02:06:18;;;;;;;51.38;34.85;;;;;;;3.04;100.00;102445.84;5072790;28;20028;-36
2021/11/11 02:08:44;;;;;;;53.43;37.40;;;;;;;2.99;99.39;102442.78;5074626;28;20127;-36
2021/11/11 02:11:10;;;;;;;58.83;37.53;;;;;;;2.97;99.91;102427.84;5077174;28;20067;-36
2021/11/11 02:13:35;;;;;;;56.97;35.67;;;;;;;3.00;99.55;102444.44;5076521;28;20020;-36
2021/11/11 02:16:01;;;;;;;60.95;36.35;;;;;;;3.03;99.77;102440.66;5076776;28;20380;-36
2021/11/11 02:18:26;;;;;;;56.50;37.33;;;;;;;2.99;100.00;102420.56;5076545;28;20024;-36
2021/11/11 02:20:52;;;;;;;57.40;37.27;;;;;;;3.10;100.00;102426.56;5076753;28;20028;-36
2021/11/11 02:23:18;;;;;;;58.30;36.77;;;;;;;3.09;99.95;102438.25;5076353;28;20032;-36
2021/11/11 02:25:44;;;;;;;55.70;34.70;;;;;;;3.11;100.00;102430.06;5076530;28;20033;-36
2021/11/11 02:28:12;;;;;;;63.55;38.15;;;;;;;3.16;100.00;102437.66;5076591;28;20119;-36
2021/11/11 02:30:41;;;;;;;65.90;39.33;;;;;;;3.14;100.00;102427.13;5076753;28;20028;-36
2021/11/11 02:33:15;;;;;;;58.55;37.17;;;;;;;3.17;100.00;102429.50;5076143;28;20028;-36
2021/11/11 02:35:42;;;;;;;55.80;35.72;;;;;;;3.10;100.00;102425.72;5077170;28;20375;-36
2021/11/11 02:38:07;;;;;;;;;;;;;;;3.21;100.00;102419.38;5077132;28;20044;-36
2021/11/11 02:40:35;;;;;;;58.63;36.75;;;;;;;3.12;100.00;102402.34;5076268;28;19915;-36
2021/11/11 02:43:00;;;;;;;55.53;35.65;;;;;;;3.26;100.00;102417.09;5076516;28;20086;-36
2021/11/11 02:45:30;;;;;;;55.35;33.97;;;;;;;3.36;100.00;102418.75;5076438;28;20413;-36
2021/11/11 02:47:57;;;;;;;57.70;36.42;;;;;;;3.36;100.00;102420.59;5076406;28;20059;-36
2021/11/11 02:50:22;;;;;;;61.08;36.58;;;;;;;3.16;100.00;102384.22;5076696;28;20078;-36
2021/11/11 02:52:50;;;;;;;57.17;36.47;;;;;;;3.39;100.00;102422.16;5076405;28;20036;-36
2021/11/11 02:55:16;;;;;;;53.92;34.40;;;;;;;3.40;100.00;102421.16;5076143;28;20065;-36
2021/11/11 02:57:44;;;;;;;67.13;37.22;;;;;;;3.32;100.00;102417.38;5076230;28;20456;-36
2021/11/11 03:00:19;;;;;;;60.80;37.20;;;;;;;3.44;100.00;102426.06;5076411;28;20024;-36
2021/11/11 03:02:46;;;;;;;56.35;35.25;;;;;;;3.45;100.00;102430.41;5075890;28;20025;-36
2021/11/11 03:05:16;;;;;;;56.63;34.85;;;;;;;3.51;100.00;102429.84;5075883;28;20400;-36
2021/11/11 03:07:42;;;;;;;54.30;34.08;;;;;;;3.46;100.00;102416.06;5076044;28;20024;-36
2021/11/11 03:10:10;;;;;;;57.35;34.95;;;;;;;3.47;100.00;102419.59;5076270;28;20028;-36
2021/11/11 03:12:36;;;;;;;56.88;35.00;;;;;;;3.33;100.00;102395.00;5076193;28;20380;-36
2021/11/11 03:15:03;;;;;;;57.88;34.50;;;;;;;3.52;100.00;102418.16;5075696;28;20185;-36
2021/11/11 03:17:28;;;;;;;51.65;32.15;;;;;;;3.62;100.00;102418.13;5076049;28;20357;-36
2021/11/11 03:19:54;;;;;;;56.23;34.57;;;;;;;3.47;100.00;102399.03;5075961;28;20033;-36
2021/11/11 03:22:20;;;;;;;63.83;35.10;;;;;;;3.60;100.00;102414.75;5075870;28;20032;-36
2021/11/11 03:24:48;;;;;;;51.67;30.90;;;;;;;3.56;100.00;102408.00;5075998;28;20127;-36
2021/11/11 03:27:14;;;;;;;52.08;31.92;;;;;;;3.60;100.00;102414.75;5075490;28;20060;-36
2021/11/11 03:29:40;;;;;;;54.63;31.88;;;;;;;3.65;100.00;102417.81;5075953;28;20502;-36
2021/11/11 03:32:06;;;;;;;53.70;30.88;;;;;;;3.60;100.00;102404.03;5075385;28;20031;-36
2021/11/11 03:34:32;;;;;;;50.20;29.13;;;;;;;3.65;100.00;102395.56;5075046;28;20032;-36
2021/11/11 03:36:58;;;;;;;51.60;31.13;;;;;;;3.76;100.00;102419.50;5075546;28;20020;-36
2021/11/11 03:39:24;;;;;;;49.13;28.70;;;;;;;3.75;100.00;102425.81;5075521;28;20486;-36
2021/11/11 03:41:51;;;;;;;;;;;;;;;3.81;100.00;102412.69;5075616;28;20415;-36
2021/11/11 03:44:18;;;;;;;45.05;26.15;;;;;;;3.78;100.00;102418.34;5075888;28;20010;-36
2021/11/11 03:46:46;;;;;;;42.53;25.83;;;;;;;3.74;100.00;102398.22;5075166;28;20036;-36
2021/11/11 03:49:12;;;;;;;53.63;28.02;;;;;;;3.78;100.00;102407.63;5076402;28;20067;-36
2021/11/11 03:51:37;;;;;;;43.85;24.42;;;;;;;3.84;100.00;102399.00;5075013;28;20331;-36
2021/11/11 03:54:05;;;;;;;43.57;25.73;;;;;;;3.84;100.00;102411.53;5075688;28;20086;-36
2021/11/11 03:56:31;;;;;;;43.22;25.80;;;;;;;3.79;100.00;102403.97;5073639;28;20504;-36
2021/11/11 03:58:56;;;;;;;41.22;25.95;;;;;;;3.85;100.00;102416.72;5074855;28;20107;-36
2021/11/11 04:01:21;;;;;;;40.27;25.40;;;;;;;3.96;100.00;102413.03;5075080;28;20025;-36
2021/11/11 04:03:47;;;;;;;37.80;22.87;;;;;;;3.92;100.00;102400.94;5074592;28;20519;-36
2021/11/11 04:06:12;;;;;;;40.27;25.20;;;;;;;4.02;100.00;102419.63;5074706;28;20465;-36
2021/11/11 04:08:37;;;;;;;47.17;28.27;;;;;;;3.88;100.00;102403.06;5074975;28;20153;-36
2021/11/11 04:11:03;;;;;;;48.27;26.37;;;;;;;3.98;100.00;102418.25;5074485;28;20052;-36
2021/11/11 04:13:29;;;;;;;49.50;27.67;;;;;;;3.90;100.00;102415.44;5074616;28;20024;-36
2021/11/11 04:15:56;;;;;;;43.70;28.37;;;;;;;3.80;100.00;102394.94;5074506;28;20440;-36
2021/11/11 04:18:21;;;;;;;45.58;26.80;;;;;;;3.86;100.00;102410.41;5074775;28;20078;-36
2021/11/11 04:20:47;;;;;;;48.83;28.97;;;;;;;3.84;100.00;102416.91;5074464;28;20463;-36
2021/11/11 04:23:13;;;;;;;49.30;26.75;;;;;;;3.88;100.00;102419.13;5074861;28;20039;-36
2021/11/11 04:25:46;;;;;;;45.42;26.70;;;;;;;3.79;100.00;102408.47;5074344;28;20033;-36
2021/11/11 04:28:32;;;;;;;45.17;28.27;;;;;;;3.78;100.00;102407.63;5075095;28;20052;-36
2021/11/11 04:31:06;;;;;;;45.78;27.45;;;;;;;3.71;100.00;102401.19;5073858;28;20056;-36
2021/11/11 04:33:35;;;;;;;44.20;26.48;;;;;;;3.77;100.00;102405.94;5074902;28;20138;-37
2021/11/11 04:36:07;;;;;;;41.83;24.50;;;;;;;3.84;100.00;102407.03;5074111;28;20346;-36
2021/11/11 04:39:01;;;;;;;44.65;27.02;;;;;;;3.83;100.00;102404.50;5073829;28;20029;-36
2021/11/11 04:44:14;;;;;;;44.63;25.80;;;;;;;3.80;100.00;102399.44;5074105;28;20519;-36
2021/11/11 04:46:57;;;;;;;42.03;27.05;;;;;;;3.83;100.00;102405.34;5074749;28;20024;-36
2021/11/11 04:52:10;;;;;;;42.28;24.83;;;;;;;3.95;100.00;102426.56;5073852;28;20037;-36
2021/11/11 05:05:20;;;;;;;45.88;26.17;;;;;;;4.10;100.00;102430.44;5074134;28;20036;-36
2021/11/11 05:07:46;;;;;;;47.53;27.88;;;;;;;4.06;100.00;102426.38;5073599;28;20029;-36
2021/11/11 05:10:12;;;;;;;54.08;29.75;;;;;;;4.08;100.00;102433.25;5074481;28;20032;-36
2021/11/11 05:12:37;;;;;;;52.53;29.80;;;;;;;4.08;100.00;102429.72;5073941;28;20556;-36
2021/11/11 05:15:06;;;;;;;38.42;23.17;;;;;;;4.23;100.00;102422.88;5073520;28;20263;-36
2021/11/11 05:17:32;;;;;;;44.15;26.15;;;;;;;4.18;100.00;102424.31;5073366;28;20025;-36
2021/11/11 05:19:57;;;;;;;45.88;27.67;;;;;;;4.22;100.00;102431.06;5074208;28;20033;-36
2021/11/11 05:22:23;;;;;;;48.97;28.25;;;;;;;4.21;100.00;102430.22;5073349;28;20130;-36
2021/11/11 05:24:48;;;;;;;41.57;26.93;;;;;;;4.24;100.00;102432.59;5073404;28;20040;-36
2021/11/11 05:27:14;;;;;;;52.10;29.90;;;;;;;4.20;100.00;102436.59;5073283;28;20032;-36
2021/11/11 05:29:41;;;;;;;48.83;28.48;;;;;;;4.06;100.00;102402.28;5073477;28;20020;-36
2021/11/11 05:32:07;;;;;;;47.83;28.05;;;;;;;4.22;100.00;102426.53;5073221;28;20335;-36
2021/11/11 05:34:33;;;;;;;55.50;32.35;;;;;;;4.20;100.00;102423.19;5073478;28;20111;-36
2021/11/11 05:36:58;;;;;;;47.40;27.27;;;;;;;4.25;100.00;102426.25;5073172;28;20032;-36
2021/11/11 05:39:23;;;;;;;45.23;25.10;;;;;;;4.24;100.00;102418.34;5073392;28;20078;-36
2021/11/11 05:41:49;;;;;;;46.87;28.90;;;;;;;4.26;100.00;102438.66;5073152;28;20464;-36
2021/11/11 05:44:15;;;;;;;48.53;30.60;;;;;;;4.28;100.00;102438.50;5072501;28;20354;-36
2021/11/11 05:46:40;;;;;;;51.60;29.33;;;;;;;4.25;100.00;102436.13;5073096;28;20033;-36
2021/11/11 05:49:06;;;;;;;51.20;30.20;;;;;;;4.22;100.00;102436.41;5073642;28;20111;-36
2021/11/11 05:51:31;;;;;;;51.17;32.03;;;;;;;4.21;100.00;102435.59;5073026;28;20036;-36
2021/11/11 05:53:56;;;;;;;43.53;28.77;;;;;;;4.21;100.00;102435.59;5073179;28;20060;-36
2021/11/11 05:56:22;;;;;;;52.53;31.13;;;;;;;4.13;100.00;102427.44;5073123;28;20099;-36
2021/11/11 05:58:47;;;;;;;47.87;29.10;;;;;;;4.16;100.00;102458.44;5073675;28;20119;-36
2021/11/11 06:01:13;;;;;;;47.40;29.20;;;;;;;4.10;100.00;102433.13;5073898;28;20056;-36
2021/11/11 06:03:38;;;;;;;52.67;30.33;;;;;;;4.14;100.00;102453.22;5073750;28;20036;-36
2021/11/11 06:06:04;;;;;;;51.80;30.70;;;;;;;4.14;100.00;102447.88;5073066;28;20422;-36
2021/11/11 06:08:29;;;;;;;48.63;30.73;;;;;;;4.13;100.00;102454.22;5073337;28;20040;-36
2021/11/11 06:10:54;;;;;;;49.10;31.20;;;;;;;4.14;100.00;102463.94;5072925;28;20029;-36
2021/11/11 06:13:22;;;;;;;50.23;31.73;;;;;;;4.05;100.00;102438.91;5073501;28;20488;-36
2021/11/11 06:15:47;;;;;;;47.95;27.75;;;;;;;4.22;100.00;102468.56;5073253;28;20032;-36
2021/11/11 06:18:13;;;;;;;47.93;30.90;;;;;;;4.18;100.00;102462.66;5072635;28;20446;-36
2021/11/11 06:20:47;;;;;;;43.58;27.27;;;;;;;4.23;100.00;102464.88;5073384;28;20028;-36
2021/11/11 06:23:14;;;;;;;49.45;29.92;;;;;;;4.19;100.00;102475.03;5073422;28;20025;-36
2021/11/11 06:25:40;;;;;;;51.85;30.65;;;;;;;4.05;100.00;102436.25;5073106;28;20021;-36
2021/11/11 06:28:07;;;;;;;51.13;31.45;;;;;;;4.16;100.00;102459.28;5072595;28;20029;-36
2021/11/11 06:30:32;;;;;;;46.88;29.50;;;;;;;4.25;100.00;102469.09;5072779;28;20071;-36
2021/11/11 06:32:58;;;;;;;54.15;32.55;;;;;;;4.30;100.00;102471.34;5073010;28;20071;-36
2021/11/11 06:35:23;;;;;;;52.37;33.83;;;;;;;4.29;100.00;102474.97;5072747;28;20048;-36
2021/11/11 06:37:49;;;;;;;55.87;32.33;;;;;;;4.28;100.00;102482.19;5073309;28;20032;-36
2021/11/11 06:40:14;;;;;;;53.97;32.03;;;;;;;4.24;100.00;102485.31;5073572;28;20607;-36
2021/11/11 06:42:39;;;;;;;52.63;31.60;;;;;;;4.10;100.00;102459.88;5072371;28;20028;-36
2021/11/11 06:45:12;;;;;;;46.67;30.20;;;;;;;4.20;100.00;102476.75;5072468;28;20028;-36
2021/11/11 06:47:39;;;;;;;53.65;30.67;;;;;;;4.24;100.00;102490.66;5073200;28;20375;-36
2021/11/11 06:50:05;;;;;;;45.22;28.83;;;;;;;4.20;100.00;102482.09;5072731;28;20033;-36
2021/11/11 06:52:30;;;;;;;48.65;30.27;;;;;;;4.27;100.00;102499.25;5072863;28;20025;-36
2021/11/11 06:54:55;;;;;;;53.17;29.27;;;;;;;4.32;100.00;102502.31;5074421;28;20031;-36
2021/11/11 06:57:21;;;;;;;44.20;26.73;;;;;;;4.36;100.00;102495.66;5076564;28;20107;-36
2021/11/11 06:59:47;;;;;;;46.50;27.67;;;;;;;4.36;100.00;102492.16;5076286;28;20052;-36
2021/11/11 07:02:12;;;;;;;51.72;30.13;;;;;;;4.31;100.00;102497.13;5076172;28;20028;-36
2021/11/11 07:04:37;;;;;;;47.43;29.20;;;;;;;4.11;100.00;102472.28;5076438;28;20028;-36
2021/11/11 07:07:03;;;;;;;46.70;30.03;;;;;;;4.32;100.00;102513.03;5075165;28;20119;-36
2021/11/11 07:09:28;;;;;;;45.63;28.92;;;;;;;4.29;100.00;102499.09;5076335;28;20017;-36
2021/11/11 07:11:54;;;;;;;45.77;29.00;;;;;;;4.34;100.00;102510.19;5076642;28;20075;-36
2021/11/11 07:14:20;;;;;;;50.23;29.67;;;;;;;4.25;100.00;102489.69;5075906;28;20024;-36
2021/11/11 07:16:46;;;;;;;51.88;29.98;;;;;;;4.36;100.00;102505.53;5076079;28;20035;-36
2021/11/11 07:19:11;;;;;;;44.90;28.80;;;;;;;4.42;100.00;102507.63;5076468;28;20028;-36
2021/11/11 07:21:37;;;;;;;43.17;29.10;;;;;;;4.42;100.00;102504.09;5076278;28;20127;-36
2021/11/11 07:24:02;;;;;;;48.13;29.87;;;;;;;4.36;100.00;102498.34;5075761;28;20047;-36
2021/11/11 07:26:28;;;;;;;50.17;30.70;;;;;;;4.30;100.00;102488.25;5075739;28;20056;-36
2021/11/11 07:28:53;;;;;;;53.43;31.43;;;;;;;4.37;100.00;102505.38;5074870;28;20302;-36
2021/11/11 07:31:23;;;;;;;49.23;28.53;;;;;;;4.33;100.00;102487.94;5075661;28;20028;-36
2021/11/11 07:33:49;;;;;;;44.30;27.73;;;;;;;4.49;100.00;102507.84;5075540;28;20024;-36
2021/11/11 07:36:14;;;;;;;41.17;26.73;;;;;;;4.53;100.00;102517.28;5075567;28;20021;-36
2021/11/11 07:38:39;;;;;;;48.50;28.03;;;;;;;4.56;100.00;102508.94;5075611;28;20247;-36
2021/11/11 07:41:05;;;;;;;43.85;27.15;;;;;;;4.58;100.00;102499.75;5075933;28;20035;-36
2021/11/11 07:43:30;;;;;;;52.17;29.00;;;;;;;4.52;100.00;102496.84;5075031;28;20052;-36
2021/11/11 07:45:56;;;;;;;51.17;30.33;;;;;;;4.41;100.00;102475.63;5075306;28;20028;-36
2021/11/11 07:48:22;;;;;;;53.03;30.57;;;;;;;4.54;100.00;102497.53;5075522;28;20031;-36
2021/11/11 07:50:47;;;;;;;51.28;31.42;;;;;;;4.61;100.00;102501.31;5076050;28;20266;-36
2021/11/11 07:53:13;;;;;;;42.90;29.33;;;;;;;4.68;100.00;102510.41;5075137;28;20410;-36
2021/11/11 07:55:40;;;;;;;54.57;32.20;;;;;;;4.53;100.00;102485.13;5075194;28;20163;-36
2021/11/11 07:58:07;;;;;;;47.85;30.75;;;;;;;4.71;100.00;102507.44;5075698;28;20024;-36
2021/11/11 08:00:34;;;;;;;51.15;31.85;;;;;;;4.75;100.00;102505.31;5075285;28;20487;-36
2021/11/11 08:02:59;;;;;;;50.72;31.73;;;;;;;4.66;100.00;102485.59;5074759;28;20472;-36
2021/11/11 08:05:25;;;;;;;50.60;31.17;;;;;;;4.77;100.00;102501.47;5074410;28;20115;-36
2021/11/11 08:07:50;;;;;;;47.70;29.90;;;;;;;4.80;100.00;102500.31;5073985;28;20021;-36
2021/11/11 08:10:18;;;;;;;46.10;30.07;;;;;;;4.85;100.00;102506.06;5075754;28;20020;-36
2021/11/11 08:12:44;;;;;;;47.45;30.95;;;;;;;4.86;100.00;102503.22;5073357;28;20048;-36
2021/11/11 08:15:10;;;;;;;51.33;30.40;;;;;;;4.79;100.00;102493.28;5074603;28;20035;-36
2021/11/11 08:17:36;;;;;;;51.90;29.20;;;;;;;4.92;100.00;102509.81;5074706;28;20020;-36
2021/11/11 08:20:02;;;;;;;43.13;28.05;;;;;;;4.94;100.00;102502.47;5075236;28;20085;-36
2021/11/11 08:22:28;;;;;;;59.50;31.52;;;;;;;5.03;100.00;102519.47;5074349;28;20032;-36
2021/11/11 08:24:54;;;;;;;50.30;28.90;;;;;;;5.09;100.00;102505.47;5074588;28;20032;-36
2021/11/11 08:27:21;;;;;;;;;;;;;;;5.17;100.00;102508.19;5074901;28;20055;-36
2021/11/11 08:29:46;;;;;;;43.00;28.23;;;;;;;5.19;100.00;102500.84;5074771;28;20259;-36
2021/11/11 08:32:14;;;;;;;46.05;28.60;;;;;;;5.24;100.00;102500.38;5074086;28;20028;-36
2021/11/11 08:34:42;;;;;;;47.50;30.10;;;;;;;5.25;100.00;102500.22;5074266;28;20024;-36
2021/11/11 08:37:07;;;;;;;49.20;30.00;;;;;;;5.25;100.00;102489.50;5073954;28;20077;-36
2021/11/11 08:39:33;;;;;;;50.30;29.83;;;;;;;5.32;100.00;102503.09;5074798;28;20130;-36
2021/11/11 08:41:59;;;;;;;45.92;29.25;;;;;;;5.41;100.00;102496.81;5074197;28;20024;-36
2021/11/11 08:44:24;;;;;;;46.45;29.25;;;;;;;5.47;100.00;102506.94;5074748;28;20033;-36
2021/11/11 08:46:50;;;;;;;50.70;30.47;;;;;;;5.50;100.00;102500.41;5073833;28;20020;-36
2021/11/11 08:49:17;;;;;;;54.00;33.03;;;;;;;5.55;100.00;102490.03;5074220;28;20093;-36
2021/11/11 08:51:43;;;;;;;48.63;30.20;;;;;;;5.56;100.00;102495.25;5074518;28;20518;-36
2021/11/11 08:54:09;;;;;;;51.72;29.75;;;;;;;5.62;100.00;102499.16;5073598;28;20032;-36
2021/11/11 08:56:34;;;;;;;45.47;29.70;;;;;;;5.59;100.00;102497.63;5073757;28;20051;-36
2021/11/11 08:59:03;;;;;;;46.97;27.73;;;;;;;5.71;100.00;102506.25;5074229;28;20250;-36
2021/11/11 09:01:31;;;;;;;43.33;29.67;;;;;;;5.74;100.00;102507.78;5073855;28;20055;-37
2021/11/11 09:03:58;;;;;;;45.80;27.92;;;;;;;5.70;100.00;102496.50;5073849;28;20032;-36
2021/11/11 09:06:23;;;;;;;42.45;27.73;;;;;;;5.86;100.00;102514.56;5073684;28;20029;-36
2021/11/11 09:08:51;;;;;;;45.47;27.83;;;;;;;5.88;100.00;102513.41;5074051;28;20035;-36
2021/11/11 09:11:18;;;;;;;49.70;29.50;;;;;;;5.97;100.00;102508.09;5073747;28;20048;-36
2021/11/11 09:13:45;;;;;;;40.22;27.15;;;;;;;5.99;100.00;102524.88;5074371;28;20032;-36
2021/11/11 09:16:12;;;;;;;42.60;26.70;;;;;;;5.99;100.00;102506.09;5073513;28;20023;-36
2021/11/11 09:18:37;;;;;;;40.42;23.58;;;;;;;6.13;100.00;102518.91;5074244;28;20024;-36
2021/11/11 09:21:06;;;;;;;42.85;26.40;;;;;;;6.16;100.00;102532.88;5073822;28;20021;-36
2021/11/11 09:23:31;;;;;;;48.88;28.55;;;;;;;6.21;100.00;102528.88;5073822;28;20043;-36
2021/11/11 09:25:59;;;;;;;46.28;28.23;;;;;;;6.19;100.00;102529.00;5073468;28;20028;-36
2021/11/11 09:28:24;;;;;;;41.47;27.55;;;;;;;6.15;100.00;102520.47;5073759;28;20376;-36
2021/11/11 09:30:50;;;;;;;42.83;26.53;;;;;;;6.29;99.84;102535.09;5073087;28;20020;-36
2021/11/11 09:33:15;;;;;;;39.78;25.50;;;;;;;6.29;99.71;102534.25;5073895;28;20028;-36
2021/11/11 09:35:41;;;;;;;39.83;24.80;;;;;;;6.33;99.53;102539.16;5073064;28;20032;-36
2021/11/11 09:38:06;;;;;;;39.67;26.40;;;;;;;6.35;99.05;102533.63;5074198;28;20124;-36
2021/11/11 09:40:32;;;;;;;38.67;25.67;;;;;;;6.38;99.87;102534.13;5073607;28;20024;-36
2021/11/11 09:42:57;;;;;;;41.42;24.48;;;;;;;6.44;99.33;102528.13;5073337;28;20110;-36
2021/11/11 09:45:27;;;;;;;36.90;24.48;;;;;;;6.43;98.42;102534.50;5073497;28;20064;-36
2021/11/11 09:47:53;;;;;;;38.28;25.35;;;;;;;6.47;99.46;102531.50;5073037;28;20099;-36
2021/11/11 09:50:21;;;;;;;39.35;25.23;;;;;;;6.48;99.50;102530.47;5073331;28;20025;-36
2021/11/11 09:52:49;;;;;;;43.22;24.67;;;;;;;6.53;98.97;102533.50;5072966;28;20035;-36
2021/11/11 10:00:46;;;;;;;37.72;24.13;;;;;;;6.64;98.97;102541.31;5073677;28;20036;-37
2021/11/11 10:03:11;;;;;;;40.80;24.35;;;;;;;6.68;98.91;102531.88;5073063;28;20032;-36
2021/11/11 10:05:37;;;;;;;39.70;25.40;;;;;;;6.72;98.88;102531.38;5073666;28;20039;-36
2021/11/11 10:08:04;;;;;;;39.40;24.33;;;;;;;6.76;98.81;102526.53;5073215;28;20082;-37
2021/11/11 10:10:40;;;;;;;33.55;23.92;;;;;;;6.76;98.06;102526.53;5072658;28;20453;-36
2021/11/11 10:13:13;;;;;;;32.13;22.45;;;;;;;6.81;97.93;102528.72;5073154;28;20039;-36
2021/11/11 10:16:17;;;;;;;37.42;24.08;;;;;;;6.87;97.83;102523.50;5072923;28;20074;-36
2021/11/11 10:18:52;;;;;;;37.95;22.92;;;;;;;6.93;98.15;102522.88;5050474;28;20036;-36
2021/11/11 10:21:49;;;;;;;36.97;23.08;;;;;;;6.96;97.96;102519.84;5050532;28;20094;-36
2021/11/11 10:24:30;;;;;;;38.55;23.90;;;;;;;7.02;98.12;102522.88;5050307;28;20041;-36
2021/11/11 10:27:06;;;;;;;38.33;24.52;;;;;;;7.09;98.00;102523.91;5051255;28;20061;-36
2021/11/11 10:29:39;;;;;;;37.45;23.48;;;;;;;7.04;97.84;102515.50;5051769;28;20032;-36
2021/11/11 10:32:27;;;;;;;33.47;23.33;;;;;;;7.15;97.73;102526.75;5054317;28;20033;-36
2021/11/11 10:34:59;;;;;;;39.38;24.50;;;;;;;7.16;96.97;102530.28;5055010;28;20420;-36
2021/11/11 10:37:28;;;;;;;38.13;24.15;;;;;;;7.12;97.15;102512.78;5054390;28;20115;-36
2021/11/11 10:39:57;;;;;;;39.22;24.92;;;;;;;7.24;97.10;102527.59;5054288;28;20033;-36
2021/11/11 10:42:25;;;;;;;33.20;22.30;;;;;;;7.29;96.86;102525.25;5054065;28;20052;-36
2021/11/11 10:44:53;;;;;;;39.70;24.02;;;;;;;7.32;97.07;102530.31;5054366;28;20037;-35
2021/11/11 10:47:29;;;;;;;38.80;24.70;;;;;;;7.27;97.09;102511.13;5054001;28;20104;-35
2021/11/11 10:49:55;;;;;;;35.75;23.75;;;;;;;7.41;97.09;102531.13;5069658;28;20043;-35
2021/11/11 10:52:30;;;;;;;34.88;23.92;;;;;;;7.41;97.12;102520.34;5076091;28;20029;-35
2021/11/11 10:55:02;;;;;;;33.60;22.90;;;;;;;7.49;96.25;102525.75;5076741;28;20111;-35
2021/11/11 10:57:53;;;;;;;34.05;23.48;;;;;;;7.61;96.99;102528.91;5076198;28;20448;-35
2021/11/11 11:00:18;;;;;;;33.60;22.92;;;;;;;7.66;96.42;102524.72;5054469;28;20036;-35
2021/11/11 11:02:56;;;;;;;33.93;22.33;;;;;;;7.68;95.16;102519.16;5053957;28;20102;-35
2021/11/11 11:05:26;;;;;;;32.42;21.80;;;;;;;7.72;95.27;102525.88;5053956;28;20037;-35
2021/11/11 11:07:59;;;;;;;33.45;20.90;;;;;;;7.75;95.53;102522.81;5053593;28;20033;-35
2021/11/11 11:10:26;;;;;;;30.15;20.75;;;;;;;7.79;94.77;102510.72;5054306;28;20044;-35
2021/11/11 11:12:52;;;;;;;30.08;21.88;;;;;;;7.79;93.81;102497.25;5053315;28;20056;-35
2021/11/11 11:15:41;;;;;;;30.50;21.33;;;;;;;7.94;93.47;102513.53;5053790;28;20068;-35
2021/11/11 11:18:08;;;;;;;32.38;21.13;;;;;;;7.96;92.31;102517.75;5053784;28;20044;-35
2021/11/11 11:20:35;;;;;;;29.40;19.00;;;;;;;7.96;91.77;102506.97;5053473;28;20071;-35
2021/11/11 11:23:15;;;;;;;29.17;20.27;;;;;;;8.07;92.29;102510.31;5053384;28;20547;-35
2021/11/11 11:25:53;;;;;;;27.17;19.73;;;;;;;8.07;92.00;102508.44;5053231;28;20040;-35
2021/11/11 11:28:49;;;;;;;33.75;20.50;;;;;;;8.17;92.21;102513.63;5053225;28;20043;-35
2021/11/11 11:31:42;;;;;;;25.63;18.55;;;;;;;8.18;90.77;102504.53;5052313;28;20040;-35
2021/11/11 11:34:11;;;;;;;28.25;18.40;;;;;;;8.22;90.06;102503.16;5053383;28;20521;-35
2021/11/11 11:36:41;;;;;;;32.05;18.65;;;;;;;8.26;90.40;102491.88;5058400;28;20527;-35